Time;durP1;ratioP1;P1;durP2;ratioP2;P2;SDS_P1;SDS_P2;PMS_P1;PMS_P2;Temp;Humidity;BMP_temperature;BMP_pressure;BME280_temperature;BME280_humidity;BME280_pressure;Samples;Min_cycle;Max_cycle;Signal;HPM_P1;HPM_P2
2021/08/27 00:01:04;;;;;;;6.22;0.50;;;;;;;;;;5031142;28;20022;-67
2021/08/27 00:03:30;;;;;;;4.13;0.50;;;;;;;;;;5030673;28;20074;-67
2021/08/27 00:05:56;;;;;;;9.05;0.52;;;;;;;;;;5030538;28;20450;-67
2021/08/27 00:08:22;;;;;;;4.13;1.08;;;;;;;;;;5031424;28;20082;-67
2021/08/27 00:10:47;;;;;;;1.38;0.35;;;;;;;;;;5032381;28;20514;-67
2021/08/27 00:13:13;;;;;;;4.53;0.60;;;;;;;;;;5026790;28;20107;-67
2021/08/27 00:15:39;;;;;;;6.10;0.60;;;;;;;;;;5030329;28;20025;-67
2021/08/27 00:18:05;;;;;;;4.10;0.50;;;;;;;;;;5032173;28;20101;-67
2021/08/27 00:20:31;;;;;;;5.03;0.63;;;;;;;;;;5029848;28;20136;-67
2021/08/27 00:22:58;;;;;;;4.90;0.50;;;;;;;;;;5022010;28;20526;-67
2021/08/27 00:25:24;;;;;;;3.88;0.57;;;;;;;;;;5031398;28;20024;-68
2021/08/27 00:27:50;;;;;;;4.38;0.93;;;;;;;;;;5030438;28;20026;-66
2021/08/27 00:30:16;;;;;;;7.05;2.05;;;;;;;;;;5032056;28;20021;-67
2021/08/27 00:32:42;;;;;;;5.05;0.75;;;;;;;;;;5031824;28;20018;-67
2021/08/27 00:35:08;;;;;;;2.95;0.60;;;;;;;;;;5029909;28;20451;-67
2021/08/27 00:37:35;;;;;;;6.05;0.55;;;;;;;;;;5031731;28;20018;-66
2021/08/27 00:40:01;;;;;;;5.68;0.50;;;;;;;;;;5031462;28;20475;-66
2021/08/27 00:42:27;;;;;;;6.43;1.20;;;;;;;;;;5023274;28;20474;-67
2021/08/27 00:44:53;;;;;;;8.93;1.27;;;;;;;;;;5029590;28;20045;-67
2021/08/27 00:47:19;;;;;;;8.02;0.65;;;;;;;;;;5031496;28;20033;-67
2021/08/27 00:49:45;;;;;;;5.72;1.25;;;;;;;;;;5031268;28;20028;-67
2021/08/27 00:52:11;;;;;;;6.20;0.55;;;;;;;;;;5029917;28;20017;-67
2021/08/27 00:54:39;;;;;;;6.30;0.80;;;;;;;;;;5031377;28;20021;-67
2021/08/27 00:57:08;;;;;;;5.35;0.65;;;;;;;;;;5030732;28;20013;-66
2021/08/27 00:59:38;;;;;;;7.20;0.82;;;;;;;;;;5030977;28;20026;-67
2021/08/27 01:02:04;;;;;;;4.88;0.63;;;;;;;;;;5030772;28;20320;-67
2021/08/27 01:04:30;;;;;;;9.95;1.35;;;;;;;;;;5030821;28;20048;-68
2021/08/27 01:06:58;;;;;;;6.25;0.82;;;;;;;;;;5030763;28;20060;-67
2021/08/27 01:09:24;;;;;;;8.52;0.82;;;;;;;;;;5031029;28;20086;-67
2021/08/27 01:11:58;;;;;;;8.63;0.95;;;;;;;;;;5029999;28;20112;-68
2021/08/27 01:14:31;;;;;;;6.15;0.60;;;;;;;;;;5030962;28;20029;-67
2021/08/27 01:17:02;;;;;;;5.75;0.77;;;;;;;;;;5030573;28;20501;-68
2021/08/27 01:19:41;;;;;;;5.03;0.85;;;;;;;;;;5038026;28;20569;-67
2021/08/27 01:22:13;;;;;;;9.10;1.63;;;;;;;;;;5030749;28;20698;-68
2021/08/27 01:24:39;;;;;;;3.85;0.60;;;;;;;;;;5029691;28;20263;-67
2021/08/27 01:27:07;;;;;;;4.07;1.20;;;;;;;;;;5033647;28;20025;-68
2021/08/27 01:29:43;;;;;;;5.18;1.10;;;;;;;;;;5045881;28;20081;-68
2021/08/27 01:32:17;;;;;;;6.10;0.60;;;;;;;;;;5045274;28;20497;-67
2021/08/27 01:34:44;;;;;;;2.95;0.50;;;;;;;;;;5042311;28;20394;-68
2021/08/27 01:37:17;;;;;;;2.95;0.50;;;;;;;;;;5031552;28;20054;-68
2021/08/27 01:39:45;;;;;;;4.97;0.45;;;;;;;;;;5029058;28;20053;-67
2021/08/27 01:42:12;;;;;;;6.20;0.60;;;;;;;;;;5031979;28;20055;-67
2021/08/27 01:44:39;;;;;;;7.10;0.82;;;;;;;;;;5031584;28;20034;-67
2021/08/27 01:47:07;;;;;;;4.85;0.90;;;;;;;;;;5030531;28;20108;-67
2021/08/27 01:49:33;;;;;;;8.10;1.15;;;;;;;;;;5030087;28;20475;-67
2021/08/27 01:52:03;;;;;;;5.63;0.77;;;;;;;;;;5030374;28;20029;-67
2021/08/27 01:54:30;;;;;;;6.50;1.00;;;;;;;;;;5030121;28;20352;-67
2021/08/27 01:56:56;;;;;;;6.07;0.82;;;;;;;;;;5029498;28;20029;-67
2021/08/27 01:59:23;;;;;;;5.88;0.70;;;;;;;;;;5030154;28;20021;-67
2021/08/27 02:01:49;;;;;;;3.05;0.45;;;;;;;;;;5029465;28;20025;-67
2021/08/27 02:04:16;;;;;;;7.07;1.08;;;;;;;;;;5030121;28;20119;-67
2021/08/27 02:06:43;;;;;;;7.40;0.45;;;;;;;;;;5032732;28;20237;-67
2021/08/27 02:09:09;;;;;;;4.28;0.65;;;;;;;;;;5032849;28;20386;-68
2021/08/27 02:11:35;;;;;;;8.35;0.73;;;;;;;;;;5032783;28;20065;-67
2021/08/27 02:14:01;;;;;;;5.32;0.63;;;;;;;;;;5031419;28;20096;-68
2021/08/27 02:16:27;;;;;;;4.25;0.70;;;;;;;;;;5024251;28;20407;-67
2021/08/27 02:18:53;;;;;;;28.63;2.30;;;;;;;;;;5031664;28;20025;-67
2021/08/27 02:21:20;;;;;;;6.90;0.98;;;;;;;;;;5031602;28;20033;-67
2021/08/27 02:23:48;;;;;;;4.97;1.02;;;;;;;;;;5029798;28;20025;-67
2021/08/27 02:26:15;;;;;;;4.70;0.63;;;;;;;;;;5023739;28;20069;-67
2021/08/27 02:28:43;;;;;;;3.22;0.30;;;;;;;;;;5030410;28;20502;-67
2021/08/27 02:31:09;;;;;;;3.42;0.77;;;;;;;;;;5029961;28;20510;-67
2021/08/27 02:33:37;;;;;;;4.05;0.50;;;;;;;;;;5030021;28;20018;-68
2021/08/27 02:36:03;;;;;;;3.63;0.50;;;;;;;;;;5029878;28;20465;-67
2021/08/27 02:38:31;;;;;;;3.97;0.50;;;;;;;;;;5029679;28;20413;-67
2021/08/27 02:40:56;;;;;;;1.67;0.50;;;;;;;;;;5027613;28;20033;-67
2021/08/27 02:43:22;;;;;;;3.95;0.50;;;;;;;;;;5024425;28;20033;-67
2021/08/27 02:45:48;;;;;;;7.68;0.63;;;;;;;;;;5030213;28;20029;-67
2021/08/27 02:48:14;;;;;;;4.03;0.35;;;;;;;;;;5029495;28;20028;-67
2021/08/27 02:50:46;;;;;;;1.90;0.77;;;;;;;;;;5028453;28;20592;-67
2021/08/27 02:53:18;;;;;;;2.80;0.60;;;;;;;;;;5028973;28;20088;-67
2021/08/27 02:55:45;;;;;;;2.40;0.45;;;;;;;;;;5029880;28;20029;-68
2021/08/27 02:58:14;;;;;;;3.58;0.40;;;;;;;;;;5029786;28;20033;-67
2021/08/27 03:01:02;;;;;;;8.60;0.57;;;;;;;;;;5033907;28;20025;-67
2021/08/27 03:03:30;;;;;;;6.57;0.50;;;;;;;;;;5032841;28;20017;-68
2021/08/27 03:06:04;;;;;;;5.40;0.60;;;;;;;;;;5030410;28;20025;-67
2021/08/27 03:08:31;;;;;;;4.43;0.75;;;;;;;;;;5032861;28;20021;-67
2021/08/27 03:11:02;;;;;;;5.78;0.40;;;;;;;;;;5033268;28;20025;-67
2021/08/27 03:13:39;;;;;;;4.20;0.60;;;;;;;;;;5027021;28;20482;-67
2021/08/27 03:16:06;;;;;;;6.50;0.50;;;;;;;;;;5030551;28;20355;-67
2021/08/27 03:18:34;;;;;;;7.18;0.82;;;;;;;;;;5031065;28;20037;-67
2021/08/27 03:21:03;;;;;;;4.10;0.60;;;;;;;;;;5032819;28;20024;-67
2021/08/27 03:23:31;;;;;;;5.13;0.95;;;;;;;;;;5025338;28;20029;-67
2021/08/27 03:25:58;;;;;;;3.42;0.47;;;;;;;;;;5033074;28;20509;-67
2021/08/27 03:28:26;;;;;;;3.53;0.40;;;;;;;;;;5033422;28;20041;-67
2021/08/27 03:30:53;;;;;;;4.85;0.50;;;;;;;;;;5032465;28;20038;-67
2021/08/27 03:33:20;;;;;;;7.00;0.68;;;;;;;;;;5032959;28;20053;-67
2021/08/27 03:35:51;;;;;;;7.32;0.60;;;;;;;;;;5032514;28;20013;-67
2021/08/27 03:38:18;;;;;;;5.78;0.88;;;;;;;;;;5032276;28;20033;-68
2021/08/27 03:40:44;;;;;;;5.10;0.50;;;;;;;;;;5039454;28;20369;-67
2021/08/27 03:43:10;;;;;;;4.63;0.30;;;;;;;;;;5030706;28;20029;-65
2021/08/27 03:45:37;;;;;;;2.95;0.65;;;;;;;;;;5032995;28;20417;-69
2021/08/27 03:48:03;;;;;;;10.18;1.05;;;;;;;;;;5036642;28;20017;-68
2021/08/27 03:50:30;;;;;;;5.53;0.40;;;;;;;;;;5032776;28;20104;-68
2021/08/27 03:52:56;;;;;;;5.22;0.90;;;;;;;;;;5032976;28;20031;-67
2021/08/27 03:55:23;;;;;;;1.70;0.35;;;;;;;;;;5037471;28;20053;-68
2021/08/27 03:57:50;;;;;;;3.83;0.63;;;;;;;;;;5036035;28;20022;-68
2021/08/27 04:00:21;;;;;;;7.30;0.57;;;;;;;;;;5043714;28;20107;-65
2021/08/27 04:02:48;;;;;;;5.93;0.70;;;;;;;;;;5050845;28;20036;-67
2021/08/27 04:05:15;;;;;;;2.80;0.47;;;;;;;;;;5042794;28;20025;-68
2021/08/27 04:07:41;;;;;;;2.92;0.45;;;;;;;;;;5032369;28;20072;-68
2021/08/27 04:10:08;;;;;;;3.33;0.63;;;;;;;;;;5035109;28;20071;-68
2021/08/27 04:12:35;;;;;;;3.80;0.45;;;;;;;;;;5025194;28;20060;-68
2021/08/27 04:15:01;;;;;;;3.92;0.50;;;;;;;;;;5032224;28;20014;-68
2021/08/27 04:17:27;;;;;;;3.75;1.67;;;;;;;;;;5033203;28;20024;-68
2021/08/27 04:19:53;;;;;;;5.22;0.50;;;;;;;;;;5031913;28;20029;-68
2021/08/27 04:22:19;;;;;;;3.95;0.40;;;;;;;;;;5031357;28;20495;-68
2021/08/27 04:24:45;;;;;;;2.65;0.47;;;;;;;;;;5031572;28;20075;-67
2021/08/27 04:27:11;;;;;;;9.52;2.08;;;;;;;;;;5029290;28;20040;-66
2021/08/27 04:29:37;;;;;;;6.30;0.77;;;;;;;;;;5030383;28;20029;-68
2021/08/27 04:32:03;;;;;;;6.82;0.50;;;;;;;;;;5031459;28;20287;-68
2021/08/27 04:34:29;;;;;;;5.93;0.55;;;;;;;;;;5030559;28;20025;-68
2021/08/27 04:36:55;;;;;;;4.18;0.60;;;;;;;;;;5031327;28;20394;-68
2021/08/27 04:39:21;;;;;;;2.35;0.30;;;;;;;;;;5030592;28;20025;-68
2021/08/27 04:41:47;;;;;;;4.35;0.60;;;;;;;;;;5031589;28;20561;-67
2021/08/27 04:44:13;;;;;;;5.25;0.73;;;;;;;;;;5028224;28;20069;-68
2021/08/27 04:46:39;;;;;;;3.85;0.60;;;;;;;;;;5033810;28;20053;-68
2021/08/27 04:49:05;;;;;;;7.03;0.40;;;;;;;;;;5036699;28;20041;-68
2021/08/27 04:51:31;;;;;;;7.95;0.93;;;;;;;;;;5031856;28;20040;-68
2021/08/27 04:53:57;;;;;;;3.97;0.73;;;;;;;;;;5052886;28;20035;-68
2021/08/27 04:56:23;;;;;;;3.58;0.65;;;;;;;;;;5035065;28;20025;-68
2021/08/27 04:58:49;;;;;;;5.53;0.82;;;;;;;;;;5031721;28;20025;-68
2021/08/27 05:01:15;;;;;;;5.32;0.75;;;;;;;;;;5036519;28;20035;-68
2021/08/27 05:03:41;;;;;;;4.15;0.63;;;;;;;;;;5031283;28;20021;-68
2021/08/27 05:06:06;;;;;;;2.65;0.40;;;;;;;;;;5032112;28;20033;-68
2021/08/27 05:08:32;;;;;;;3.78;0.50;;;;;;;;;;5030471;28;20036;-68
2021/08/27 05:10:58;;;;;;;5.18;0.52;;;;;;;;;;5030749;28;20026;-68
2021/08/27 05:13:24;;;;;;;3.08;0.50;;;;;;;;;;5031009;28;20018;-68
2021/08/27 05:15:50;;;;;;;5.97;0.93;;;;;;;;;;5029854;28;20022;-67
2021/08/27 05:18:16;;;;;;;3.22;1.15;;;;;;;;;;5029495;28;20557;-68
2021/08/27 05:20:42;;;;;;;4.90;0.43;;;;;;;;;;5031515;28;20022;-68
2021/08/27 05:23:08;;;;;;;4.75;0.50;;;;;;;;;;5030350;28;20071;-68
2021/08/27 05:25:34;;;;;;;3.50;0.38;;;;;;;;;;5030798;28;20021;-68
2021/08/27 05:28:00;;;;;;;4.15;0.40;;;;;;;;;;5030650;28;20434;-68
2021/08/27 05:30:26;;;;;;;5.95;0.47;;;;;;;;;;5030897;28;20018;-68
2021/08/27 05:32:54;;;;;;;6.97;0.30;;;;;;;;;;5030342;28;20029;-68
2021/08/27 05:35:20;;;;;;;2.97;0.60;;;;;;;;;;5028758;28;20026;-68
2021/08/27 05:37:46;;;;;;;8.70;0.57;;;;;;;;;;5033314;28;20048;-68
2021/08/27 05:40:13;;;;;;;1.35;0.40;;;;;;;;;;5031029;28;20478;-68
2021/08/27 05:42:40;;;;;;;4.95;0.57;;;;;;;;;;5030738;28;20498;-68
2021/08/27 05:45:06;;;;;;;3.05;0.73;;;;;;;;;;5031576;28;20056;-68
2021/08/27 05:47:32;;;;;;;6.13;0.70;;;;;;;;;;5031029;28;20526;-68
2021/08/27 05:49:59;;;;;;;3.25;0.45;;;;;;;;;;5030549;28;20486;-68
2021/08/27 05:52:25;;;;;;;2.63;0.57;;;;;;;;;;5031564;28;20422;-69
2021/08/27 05:54:51;;;;;;;2.90;0.70;;;;;;;;;;5040653;28;20033;-68
2021/08/27 05:57:17;;;;;;;3.40;0.40;;;;;;;;;;5031120;28;20073;-69
2021/08/27 05:59:43;;;;;;;2.75;0.30;;;;;;;;;;5030174;28;20478;-69
2021/08/27 06:02:09;;;;;;;3.20;0.38;;;;;;;;;;5030638;28;20032;-69
2021/08/27 06:04:35;;;;;;;4.75;0.40;;;;;;;;;;5030631;28;20394;-69
2021/08/27 06:07:01;;;;;;;1.75;0.45;;;;;;;;;;5030157;28;20025;-69
2021/08/27 06:09:27;;;;;;;3.33;0.32;;;;;;;;;;5030285;28;20033;-69
2021/08/27 06:11:53;;;;;;;5.57;0.47;;;;;;;;;;5033015;28;20049;-69
2021/08/27 06:14:19;;;;;;;3.47;0.32;;;;;;;;;;5029788;28;20017;-68
2021/08/27 06:16:45;;;;;;;2.08;0.20;;;;;;;;;;5028762;28;20421;-69
2021/08/27 06:19:11;;;;;;;9.88;1.23;;;;;;;;;;5023258;28;20132;-69
2021/08/27 06:21:38;;;;;;;3.85;0.45;;;;;;;;;;5024059;28;20557;-69
2021/08/27 06:24:04;;;;;;;2.80;0.40;;;;;;;;;;5027096;28;20022;-69
2021/08/27 06:26:30;;;;;;;6.53;0.95;;;;;;;;;;5030089;28;20108;-69
2021/08/27 06:28:58;;;;;;;2.78;0.20;;;;;;;;;;5021269;28;20062;-69
2021/08/27 06:31:24;;;;;;;6.50;0.50;;;;;;;;;;5028493;28;20029;-69
2021/08/27 06:33:50;;;;;;;4.45;0.45;;;;;;;;;;5031236;28;20026;-68
2021/08/27 06:36:16;;;;;;;4.97;0.38;;;;;;;;;;5032647;28;20025;-69
2021/08/27 06:38:42;;;;;;;4.30;0.60;;;;;;;;;;5027818;28;20367;-69
2021/08/27 06:41:08;;;;;;;2.33;0.52;;;;;;;;;;5030794;28;20022;-69
2021/08/27 06:43:38;;;;;;;2.55;0.57;;;;;;;;;;5033650;28;20036;-69
2021/08/27 06:46:06;;;;;;;3.22;0.40;;;;;;;;;;5031857;28;20023;-68
2021/08/27 06:48:33;;;;;;;3.87;0.40;;;;;;;;;;5033271;28;20021;-69
2021/08/27 06:50:59;;;;;;;3.80;0.40;;;;;;;;;;5040112;28;20037;-69
2021/08/27 06:53:25;;;;;;;2.53;0.60;;;;;;;;;;5033594;28;20045;-69
2021/08/27 06:55:51;;;;;;;2.25;0.38;;;;;;;;;;5033444;28;20060;-69
2021/08/27 06:58:17;;;;;;;2.05;0.45;;;;;;;;;;5032743;28;20100;-69
2021/08/27 07:00:43;;;;;;;4.97;0.38;;;;;;;;;;5033802;28;20021;-70
2021/08/27 07:03:09;;;;;;;3.08;0.57;;;;;;;;;;5032627;28;20075;-69
2021/08/27 07:05:36;;;;;;;3.42;0.65;;;;;;;;;;5033270;28;20064;-69
2021/08/27 07:08:02;;;;;;;3.00;0.45;;;;;;;;;;5032903;28;20055;-69
2021/08/27 07:10:28;;;;;;;5.57;0.38;;;;;;;;;;5028684;28;20411;-69
2021/08/27 07:12:54;;;;;;;3.85;0.30;;;;;;;;;;5030862;28;20021;-69
2021/08/27 07:15:20;;;;;;;3.10;0.60;;;;;;;;;;5024614;28;20044;-69
2021/08/27 07:17:46;;;;;;;5.22;0.50;;;;;;;;;;5032129;28;20508;-69
2021/08/27 07:20:12;;;;;;;2.90;0.55;;;;;;;;;;5032632;28;20025;-69
2021/08/27 07:22:38;;;;;;;2.88;0.60;;;;;;;;;;5032703;28;20112;-69
2021/08/27 07:25:05;;;;;;;6.10;0.73;;;;;;;;;;5032160;28;20037;-69
2021/08/27 07:27:31;;;;;;;4.72;0.90;;;;;;;;;;5032288;28;20087;-68
2021/08/27 07:29:57;;;;;;;10.20;0.82;;;;;;;;;;5033331;28;20025;-68
2021/08/27 07:32:23;;;;;;;5.30;0.60;;;;;;;;;;5021813;28;20045;-69
2021/08/27 07:34:50;;;;;;;4.00;0.50;;;;;;;;;;5027771;28;20505;-69
2021/08/27 07:37:16;;;;;;;2.58;0.38;;;;;;;;;;5031588;28;20021;-68
2021/08/27 07:39:41;;;;;;;8.90;1.25;;;;;;;;;;5032602;28;20331;-68
2021/08/27 07:42:08;;;;;;;3.03;0.45;;;;;;;;;;5030194;28;20151;-68
2021/08/27 07:44:34;;;;;;;3.90;0.52;;;;;;;;;;5029982;28;20076;-69
2021/08/27 07:47:01;;;;;;;3.38;0.77;;;;;;;;;;5031644;28;20116;-68
2021/08/27 07:49:26;;;;;;;5.32;1.15;;;;;;;;;;5032309;28;20109;-69
2021/08/27 07:51:53;;;;;;;2.30;0.80;;;;;;;;;;5032007;28;20108;-70
2021/08/27 07:54:19;;;;;;;2.63;0.45;;;;;;;;;;5031627;28;20105;-70
2021/08/27 07:56:45;;;;;;;4.68;1.05;;;;;;;;;;5032565;28;20101;-71
2021/08/27 07:59:11;;;;;;;5.63;0.95;;;;;;;;;;5031824;28;20598;-70
2021/08/27 08:01:37;;;;;;;3.47;0.68;;;;;;;;;;5025905;28;20031;-70
2021/08/27 08:04:03;;;;;;;5.60;0.75;;;;;;;;;;5030042;28;20072;-70
2021/08/27 08:06:31;;;;;;;4.65;0.52;;;;;;;;;;5031725;28;20029;-70
2021/08/27 08:08:57;;;;;;;3.42;1.00;;;;;;;;;;5032099;28;20060;-70
2021/08/27 08:11:23;;;;;;;3.30;0.70;;;;;;;;;;5031743;28;20057;-70
2021/08/27 08:13:49;;;;;;;5.72;1.08;;;;;;;;;;5029836;28;20036;-70
2021/08/27 08:16:15;;;;;;;4.32;0.98;;;;;;;;;;5023033;28;20112;-70
2021/08/27 08:18:41;;;;;;;7.13;1.20;;;;;;;;;;5030457;28;20096;-70
2021/08/27 08:21:08;;;;;;;3.78;0.85;;;;;;;;;;5021459;28;20032;-70
2021/08/27 08:23:34;;;;;;;7.00;0.77;;;;;;;;;;5030157;28;20022;-70
2021/08/27 08:26:01;;;;;;;4.13;1.20;;;;;;;;;;5027038;28;20577;-70
2021/08/27 08:28:27;;;;;;;5.05;0.95;;;;;;;;;;5027505;28;20073;-70
2021/08/27 08:30:53;;;;;;;7.93;1.10;;;;;;;;;;5029097;28;20488;-70
2021/08/27 08:33:20;;;;;;;4.78;1.35;;;;;;;;;;5030149;28;20124;-70
2021/08/27 08:35:46;;;;;;;6.53;1.40;;;;;;;;;;5031271;28;20029;-71
2021/08/27 08:38:12;;;;;;;4.43;0.98;;;;;;;;;;5029291;28;20022;-69
2021/08/27 08:40:39;;;;;;;4.63;1.15;;;;;;;;;;5028943;28;20497;-69
2021/08/27 08:43:06;;;;;;;5.93;1.38;;;;;;;;;;5028007;28;20056;-69
2021/08/27 08:45:32;;;;;;;4.78;0.70;;;;;;;;;;5031547;28;20048;-69
2021/08/27 08:47:59;;;;;;;5.10;1.02;;;;;;;;;;5029917;28;20029;-69
2021/08/27 08:50:25;;;;;;;3.42;0.93;;;;;;;;;;5030105;28;20025;-69
2021/08/27 08:52:51;;;;;;;7.63;2.25;;;;;;;;;;5030030;28;20533;-69
2021/08/27 08:55:17;;;;;;;5.85;1.13;;;;;;;;;;5029955;28;20357;-69
2021/08/27 08:57:43;;;;;;;4.35;1.00;;;;;;;;;;5033090;28;20025;-69
2021/08/27 09:00:10;;;;;;;4.32;1.10;;;;;;;;;;5036468;28;20040;-69
2021/08/27 09:02:35;;;;;;;6.93;1.65;;;;;;;;;;5031923;28;20026;-69
2021/08/27 09:05:01;;;;;;;6.13;2.20;;;;;;;;;;5041572;28;20124;-69
2021/08/27 09:07:28;;;;;;;5.32;1.45;;;;;;;;;;5040643;28;20021;-69
2021/08/27 09:09:54;;;;;;;5.60;1.00;;;;;;;;;;5036105;28;20108;-69
2021/08/27 09:12:24;;;;;;;5.75;0.95;;;;;;;;;;5036452;28;20061;-69
2021/08/27 09:14:56;;;;;;;5.57;1.48;;;;;;;;;;5038796;28;20067;-68
2021/08/27 09:17:29;;;;;;;5.28;1.30;;;;;;;;;;5032918;28;20087;-68
2021/08/27 09:19:55;;;;;;;6.18;1.55;;;;;;;;;;5031566;28;20076;-68
2021/08/27 09:22:22;;;;;;;5.45;1.60;;;;;;;;;;5028019;28;20029;-68
2021/08/27 09:25:07;;;;;;;5.55;1.38;;;;;;;;;;5028898;28;20022;-68
2021/08/27 09:27:35;;;;;;;6.20;1.55;;;;;;;;;;5033435;28;20030;-68
2021/08/27 09:30:01;;;;;;;7.55;1.15;;;;;;;;;;5028117;28;20022;-68
2021/08/27 09:32:32;;;;;;;6.05;1.13;;;;;;;;;;5023104;28;20496;-68
2021/08/27 09:35:15;;;;;;;6.20;1.40;;;;;;;;;;5026850;28;20406;-68
2021/08/27 09:37:43;;;;;;;4.93;1.33;;;;;;;;;;5025947;28;20049;-68
2021/08/27 09:40:10;;;;;;;10.02;1.77;;;;;;;;;;5029850;28;20196;-68
2021/08/27 09:42:37;;;;;;;7.38;1.52;;;;;;;;;;5028698;28;20041;-68
2021/08/27 09:45:03;;;;;;;4.00;1.10;;;;;;;;;;5028935;28;20025;-68
2021/08/27 09:47:29;;;;;;;5.45;1.20;;;;;;;;;;5027846;28;20036;-68
2021/08/27 09:49:55;;;;;;;7.88;1.38;;;;;;;;;;5028058;28;20022;-68
2021/08/27 09:52:21;;;;;;;5.82;1.40;;;;;;;;;;5027558;28;20041;-68
2021/08/27 09:54:48;;;;;;;5.28;0.95;;;;;;;;;;5027847;28;20018;-70
2021/08/27 09:57:14;;;;;;;8.93;1.63;;;;;;;;;;5020893;28;20120;-67
2021/08/27 09:59:47;;;;;;;11.43;1.65;;;;;;;;;;5027851;28;20032;-67
2021/08/27 10:02:14;;;;;;;5.00;1.08;;;;;;;;;;5028105;28;20521;-67
2021/08/27 10:04:49;;;;;;;7.70;1.50;;;;;;;;;;5027403;28;20026;-67
2021/08/27 10:07:28;;;;;;;4.38;0.88;;;;;;;;;;5026393;28;20029;-69
2021/08/27 10:09:55;;;;;;;5.22;1.05;;;;;;;;;;5026455;28;20044;-69
2021/08/27 10:12:21;;;;;;;5.80;1.73;;;;;;;;;;5027616;28;20032;-69
2021/08/27 10:14:49;;;;;;;7.70;1.45;;;;;;;;;;5028178;28;20025;-72
2021/08/27 10:17:15;;;;;;;6.03;1.30;;;;;;;;;;5027665;28;20104;-70
2021/08/27 10:19:41;;;;;;;6.10;1.25;;;;;;;;;;5030648;28;20625;-69
2021/08/27 10:22:07;;;;;;;4.75;1.00;;;;;;;;;;5030502;28;20028;-69
2021/08/27 10:24:32;;;;;;;4.85;1.05;;;;;;;;;;5028347;28;20422;-67
2021/08/27 10:26:59;;;;;;;5.85;0.93;;;;;;;;;;5027983;28;20069;-69
2021/08/27 10:29:25;;;;;;;3.83;1.30;;;;;;;;;;5015376;28;20051;-69
2021/08/27 10:31:51;;;;;;;6.50;1.55;;;;;;;;;;5029288;28;20030;-68
2021/08/27 10:34:18;;;;;;;5.40;1.65;;;;;;;;;;5028425;28;20036;-69
2021/08/27 10:36:48;;;;;;;6.97;0.95;;;;;;;;;;5029560;28;20021;-69
2021/08/27 10:39:33;;;;;;;4.93;1.10;;;;;;;;;;5029023;28;20017;-70
2021/08/27 10:41:59;;;;;;;5.93;1.23;;;;;;;;;;5026749;28;20033;-70
2021/08/27 10:44:45;;;;;;;10.60;1.70;;;;;;;;;;5028982;28;20508;-69
2021/08/27 10:47:11;;;;;;;5.88;0.90;;;;;;;;;;5027033;28;20038;-69
2021/08/27 10:49:44;;;;;;;7.63;1.70;;;;;;;;;;5028306;28;20437;-68
2021/08/27 10:52:26;;;;;;;4.38;0.63;;;;;;;;;;5027445;28;20091;-69
2021/08/27 10:55:04;;;;;;;11.52;1.40;;;;;;;;;;5026776;28;20029;-69
2021/08/27 10:57:43;;;;;;;3.78;0.68;;;;;;;;;;5027358;28;20086;-68
2021/08/27 11:00:10;;;;;;;4.75;1.00;;;;;;;;;;5029138;28;20037;-68
2021/08/27 11:02:52;;;;;;;6.80;1.02;;;;;;;;;;5029171;28;20406;-70
2021/08/27 11:05:31;;;;;;;4.60;0.82;;;;;;;;;;5027215;28;20042;-69
2021/08/27 11:08:02;;;;;;;4.72;0.80;;;;;;;;;;5026964;28;20403;-68
2021/08/27 11:10:28;;;;;;;4.97;1.02;;;;;;;;;;5028371;28;20030;-68
2021/08/27 11:12:57;;;;;;;7.15;1.38;;;;;;;;;;5027165;28;20157;-69
2021/08/27 11:15:26;;;;;;;8.60;1.35;;;;;;;;;;5028692;28;20026;-69
2021/08/27 11:18:11;;;;;;;9.30;1.00;;;;;;;;;;5025344;28;20018;-69
2021/08/27 11:20:37;;;;;;;6.13;1.15;;;;;;;;;;5031859;28;20390;-69
2021/08/27 11:23:03;;;;;;;6.50;1.35;;;;;;;;;;5025410;28;20021;-69
2021/08/27 11:25:29;;;;;;;6.95;0.75;;;;;;;;;;5032787;28;20026;-68
2021/08/27 11:28:09;;;;;;;5.85;1.25;;;;;;;;;;5032165;28;20141;-69
2021/08/27 11:30:36;;;;;;;10.98;1.33;;;;;;;;;;5032132;28;20014;-69
2021/08/27 11:33:03;;;;;;;5.07;0.98;;;;;;;;;;5038063;28;20061;-68
2021/08/27 11:35:29;;;;;;;5.13;1.00;;;;;;;;;;5037446;28;20032;-68
2021/08/27 11:37:56;;;;;;;4.35;0.93;;;;;;;;;;5034698;28;20379;-68
2021/08/27 11:40:22;;;;;;;5.00;0.95;;;;;;;;;;5031463;28;20033;-69
2021/08/27 11:42:53;;;;;;;9.55;0.88;;;;;;;;;;5028221;28;20041;-69
2021/08/27 11:45:21;;;;;;;4.07;0.77;;;;;;;;;;5031895;28;20029;-70
2021/08/27 11:47:48;;;;;;;4.38;0.85;;;;;;;;;;5029847;28;20105;-69
2021/08/27 11:50:43;;;;;;;4.55;0.80;;;;;;;;;;5031523;28;20091;-69
2021/08/27 11:53:09;;;;;;;8.52;1.63;;;;;;;;;;5025585;28;20486;-69
2021/08/27 11:55:43;;;;;;;3.80;0.30;;;;;;;;;;5031799;28;20334;-69
2021/08/27 11:58:09;;;;;;;5.28;0.50;;;;;;;;;;5031271;28;20071;-69
2021/08/27 12:00:42;;;;;;;4.43;0.50;;;;;;;;;;5031732;28;20108;-69
2021/08/27 12:03:11;;;;;;;2.33;0.50;;;;;;;;;;5029069;28;20076;-68
2021/08/27 12:05:37;;;;;;;2.10;0.60;;;;;;;;;;5030564;28;20120;-68
2021/08/27 12:08:03;;;;;;;1.13;0.40;;;;;;;;;;5028791;28;20021;-68
2021/08/27 12:10:39;;;;;;;1.38;0.20;;;;;;;;;;5031514;28;20071;-68
2021/08/27 12:13:06;;;;;;;3.70;0.50;;;;;;;;;;5029038;28;20032;-67
2021/08/27 12:15:33;;;;;;;2.58;0.70;;;;;;;;;;5030818;28;20021;-67
2021/08/27 12:18:09;;;;;;;2.40;0.73;;;;;;;;;;5032039;28;20013;-67
2021/08/27 12:20:38;;;;;;;3.42;1.13;;;;;;;;;;5031660;28;20029;-68
2021/08/27 12:23:08;;;;;;;3.28;0.35;;;;;;;;;;5027394;28;20036;-68
2021/08/27 12:25:42;;;;;;;2.45;0.80;;;;;;;;;;5031096;28;20466;-68
2021/08/27 12:28:08;;;;;;;4.05;0.52;;;;;;;;;;5030174;28;20410;-68
2021/08/27 12:30:35;;;;;;;4.72;0.60;;;;;;;;;;5028647;28;21124;-67
2021/08/27 12:33:02;;;;;;;6.72;0.82;;;;;;;;;;5027273;28;20057;-68
2021/08/27 12:35:30;;;;;;;1.77;0.43;;;;;;;;;;5029982;28;20032;-68
2021/08/27 12:37:56;;;;;;;4.13;0.30;;;;;;;;;;5029299;28;20045;-68
2021/08/27 12:40:23;;;;;;;5.70;1.05;;;;;;;;;;5017867;28;20030;-67
2021/08/27 12:42:56;;;;;;;3.42;0.50;;;;;;;;;;5030900;28;20040;-67
2021/08/27 12:45:22;;;;;;;5.45;0.90;;;;;;;;;;5029908;28;20029;-68
2021/08/27 12:47:48;;;;;;;3.35;0.77;;;;;;;;;;5029719;28;20118;-67
2021/08/27 12:50:15;;;;;;;6.25;0.90;;;;;;;;;;5030950;28;20030;-68
2021/08/27 12:52:59;;;;;;;6.75;2.10;;;;;;;;;;5030418;28;20430;-68
2021/08/27 12:55:25;;;;;;;5.93;1.35;;;;;;;;;;5030599;28;20021;-68
2021/08/27 12:57:51;;;;;;;4.97;0.60;;;;;;;;;;5030620;28;20022;-69
2021/08/27 13:00:22;;;;;;;4.25;0.50;;;;;;;;;;5030912;28;20087;-68
2021/08/27 13:02:48;;;;;;;5.05;0.88;;;;;;;;;;5030241;28;20028;-68
2021/08/27 13:05:14;;;;;;;4.35;0.43;;;;;;;;;;5030693;28;20453;-68
2021/08/27 13:07:40;;;;;;;3.22;0.40;;;;;;;;;;5030672;28;20093;-67
2021/08/27 13:10:16;;;;;;;5.10;0.70;;;;;;;;;;5029911;28;20112;-68
2021/08/27 13:12:43;;;;;;;4.30;0.70;;;;;;;;;;5028059;28;20505;-68
2021/08/27 13:15:22;;;;;;;4.55;1.30;;;;;;;;;;5030640;28;20025;-68
2021/08/27 13:17:59;;;;;;;5.18;1.13;;;;;;;;;;5028924;28;20550;-69
2021/08/27 13:20:26;;;;;;;5.13;0.80;;;;;;;;;;5029470;28;20031;-69
2021/08/27 13:22:52;;;;;;;5.20;0.73;;;;;;;;;;5030580;28;20025;-69
2021/08/27 13:25:26;;;;;;;16.67;2.08;;;;;;;;;;5030306;28;20029;-69
2021/08/27 13:27:52;;;;;;;5.55;0.70;;;;;;;;;;5029640;28;20033;-69
2021/08/27 13:30:18;;;;;;;3.13;0.82;;;;;;;;;;5030031;28;20021;-69
2021/08/27 13:32:48;;;;;;;7.40;0.85;;;;;;;;;;5029323;28;20088;-69
2021/08/27 13:35:14;;;;;;;3.83;1.20;;;;;;;;;;5030384;28;20112;-70
2021/08/27 13:37:41;;;;;;;5.25;0.90;;;;;;;;;;5028281;28;20042;-70
2021/08/27 13:40:07;;;;;;;8.07;1.40;;;;;;;;;;5029208;28;20025;-69
2021/08/27 13:42:33;;;;;;;7.57;0.80;;;;;;;;;;5025787;28;20498;-70
2021/08/27 13:44:59;;;;;;;4.15;0.77;;;;;;;;;;5028216;28;20095;-70
2021/08/27 13:47:26;;;;;;;7.55;1.88;;;;;;;;;;5025895;28;20033;-69
2021/08/27 13:49:52;;;;;;;8.07;2.13;;;;;;;;;;5028270;28;20552;-70
2021/08/27 13:52:18;;;;;;;5.10;0.95;;;;;;;;;;5028342;28;20029;-69
2021/08/27 13:54:44;;;;;;;4.63;0.80;;;;;;;;;;5027208;28;20079;-69
2021/08/27 13:57:10;;;;;;;6.70;1.15;;;;;;;;;;5028430;28;20367;-69
2021/08/27 13:59:36;;;;;;;3.95;0.70;;;;;;;;;;5029266;28;20030;-71
2021/08/27 14:02:02;;;;;;;4.53;0.95;;;;;;;;;;5035381;28;20033;-71
2021/08/27 14:04:28;;;;;;;5.78;1.20;;;;;;;;;;5037709;28;20378;-70
2021/08/27 14:06:54;;;;;;;8.65;1.60;;;;;;;;;;5033783;28;20033;-70
2021/08/27 14:09:20;;;;;;;10.55;1.35;;;;;;;;;;5028566;28;20049;-70
2021/08/27 14:11:46;;;;;;;8.68;1.38;;;;;;;;;;5029308;28;20427;-70
2021/08/27 14:14:12;;;;;;;9.80;1.15;;;;;;;;;;5028856;28;20477;-70
2021/08/27 14:16:38;;;;;;;5.03;1.13;;;;;;;;;;5029856;28;20022;-70
2021/08/27 14:19:04;;;;;;;6.72;1.10;;;;;;;;;;5029600;28;20025;-70
2021/08/27 14:21:30;;;;;;;4.13;0.93;;;;;;;;;;5029720;28;20562;-70
2021/08/27 14:23:56;;;;;;;7.57;0.90;;;;;;;;;;5029910;28;20040;-70
2021/08/27 14:26:22;;;;;;;9.60;1.65;;;;;;;;;;5029826;28;20029;-70
2021/08/27 14:28:48;;;;;;;5.63;0.90;;;;;;;;;;5029755;28;20466;-70
2021/08/27 14:31:14;;;;;;;9.23;1.90;;;;;;;;;;5027748;28;20030;-71
2021/08/27 14:33:48;;;;;;;6.78;1.40;;;;;;;;;;5029572;28;20028;-69
2021/08/27 14:36:14;;;;;;;6.30;1.42;;;;;;;;;;5025608;28;20475;-71
2021/08/27 14:38:40;;;;;;;5.13;1.10;;;;;;;;;;5029083;28;20028;-71
2021/08/27 14:41:05;;;;;;;7.38;1.45;;;;;;;;;;5029641;28;20026;-69
2021/08/27 14:43:32;;;;;;;6.53;1.23;;;;;;;;;;5028541;28;20108;-69
2021/08/27 14:45:58;;;;;;;6.55;1.33;;;;;;;;;;5027136;28;20029;-70